createdAt,value
2019-04-07T00:00:36.262Z,19.47
2019-04-07T00:03:05.478Z,20.10
2019-04-07T00:05:34.545Z,20.43
2019-04-07T00:08:12.368Z,21.37
2019-04-07T00:10:41.385Z,21.13
2019-04-07T00:13:09.982Z,20.57
2019-04-07T00:15:39.180Z,20.07
2019-04-07T00:18:09.190Z,18.37
2019-04-07T00:20:37.729Z,19.37
2019-04-07T00:23:06.190Z,20.53
2019-04-07T00:25:34.760Z,21.60
2019-04-07T00:28:03.216Z,19.90
2019-04-07T00:30:31.766Z,19.37
2019-04-07T00:33:00.771Z,20.10
2019-04-07T00:35:32.245Z,18.40
2019-04-07T00:37:59.492Z,19.20
2019-04-07T00:40:28.388Z,18.00
2019-04-07T00:42:56.948Z,18.83
2019-04-07T00:45:26.277Z,18.20
2019-04-07T00:47:54.816Z,20.03
2019-04-07T00:50:23.284Z,16.77
2019-04-07T00:52:52.539Z,19.37
2019-04-07T00:55:22.133Z,20.17
2019-04-07T00:57:50.840Z,19.70
2019-04-07T01:00:20.480Z,17.10
2019-04-07T01:02:48.956Z,19.87
2019-04-07T01:05:17.998Z,19.03
2019-04-07T01:07:47.106Z,19.57
2019-04-07T01:10:17.443Z,20.40
2019-04-07T01:12:45.940Z,18.27
2019-04-07T01:15:15.111Z,19.70
2019-04-07T01:17:43.682Z,18.80
2019-04-07T01:20:12.914Z,19.60
2019-04-07T01:22:41.955Z,19.97
2019-04-07T01:25:11.190Z,19.80
2019-04-07T01:27:40.078Z,19.20
2019-04-07T01:30:09.627Z,18.40
2019-04-07T01:32:38.763Z,20.93
2019-04-07T01:35:08.046Z,19.40
2019-04-07T01:37:36.504Z,20.30
2019-04-07T01:40:06.969Z,19.60
2019-04-07T01:42:37.596Z,18.13
2019-04-07T01:45:11.551Z,19.73
2019-04-07T01:47:56.572Z,21.47
2019-04-07T01:50:36.279Z,20.90
2019-04-07T01:53:06.712Z,19.90
2019-04-07T01:55:41.040Z,18.60
2019-04-07T01:58:17.331Z,19.93
2019-04-07T02:00:52.988Z,19.40
2019-04-07T02:03:23.179Z,19.80
2019-04-07T02:06:11.750Z,19.83
2019-04-07T02:08:51.692Z,19.80
2019-04-07T02:11:22.075Z,18.60
2019-04-07T02:14:07.137Z,17.80
2019-04-07T02:16:37.291Z,20.20
2019-04-07T02:19:07.393Z,18.60
2019-04-07T02:21:49.327Z,19.17
2019-04-07T02:24:20.227Z,19.80
2019-04-07T02:27:06.434Z,20.60
2019-04-07T02:29:36.734Z,20.57
2019-04-07T02:32:13.286Z,19.80
2019-04-07T02:34:46.100Z,18.30
2019-04-07T02:37:22.688Z,20.83
2019-04-07T02:40:05.098Z,19.30
2019-04-07T02:42:38.360Z,19.30
2019-04-07T02:45:09.711Z,20.27
2019-04-07T02:47:39.820Z,20.10
2019-04-07T02:50:12.777Z,20.77
2019-04-07T02:52:45.696Z,19.53
2019-04-07T02:55:28.161Z,18.33
2019-04-07T02:57:58.543Z,18.50
2019-04-07T03:00:34.443Z,18.97
2019-04-07T03:03:07.451Z,20.43
2019-04-07T03:05:40.472Z,20.07
2019-04-07T03:08:27.022Z,20.30
2019-04-07T03:10:57.259Z,19.20
2019-04-07T03:13:43.668Z,19.60
2019-04-07T03:16:14.616Z,18.80
2019-04-07T03:18:44.931Z,20.07
2019-04-07T03:21:15.745Z,19.13
2019-04-07T03:24:00.936Z,18.87
2019-04-07T03:26:47.755Z,19.33
2019-04-07T03:29:18.261Z,19.33
2019-04-07T03:31:59.738Z,19.50
2019-04-07T03:34:32.877Z,19.60
2019-04-07T03:37:23.955Z,19.57
2019-04-07T03:39:41.505Z,18.90
2019-04-07T03:42:21.321Z,19.37
2019-04-07T03:45:08.197Z,19.50
2019-04-07T03:47:41.917Z,19.50
2019-04-07T03:50:12.457Z,19.30
2019-04-07T03:52:42.892Z,20.67
2019-04-07T03:55:13.222Z,18.67
2019-04-07T03:57:43.311Z,19.87
2019-04-07T04:00:53.684Z,18.03
2019-04-07T04:03:24.517Z,18.93
2019-04-07T04:05:55.162Z,20.57
2019-04-07T04:08:25.336Z,20.07
2019-04-07T04:10:55.695Z,18.83
2019-04-07T04:13:26.009Z,19.63
2019-04-07T04:15:56.651Z,19.17
2019-04-07T04:18:26.242Z,20.50
2019-04-07T04:20:54.928Z,20.00
2019-04-07T04:23:23.433Z,20.03
2019-04-07T04:25:52.433Z,19.33
2019-04-07T04:28:21.873Z,18.30
2019-04-07T04:30:50.780Z,19.30
2019-04-07T04:33:19.968Z,20.40
2019-04-07T04:35:48.469Z,19.20
2019-04-07T04:38:17.709Z,21.50
2019-04-07T04:40:46.347Z,19.17
2019-04-07T04:43:15.616Z,21.40
2019-04-07T04:45:44.896Z,21.97
2019-04-07T04:48:13.515Z,18.37
2019-04-07T04:50:42.454Z,22.57
2019-04-07T04:53:10.928Z,21.87
2019-04-07T04:55:40.356Z,21.40
2019-04-07T04:58:09.985Z,20.37
2019-04-07T05:00:39.250Z,22.13
2019-04-07T05:03:08.216Z,23.03
2019-04-07T05:05:36.827Z,23.20
2019-04-07T05:08:05.841Z,23.73
2019-04-07T05:10:35.748Z,24.53
2019-04-07T05:13:04.575Z,23.73
2019-04-07T05:15:33.086Z,24.60
2019-04-07T05:18:01.664Z,23.50
2019-04-07T05:20:30.212Z,23.70
2019-04-07T05:22:58.704Z,23.17
2019-04-07T05:25:27.390Z,22.00
2019-04-07T05:27:55.914Z,22.10
2019-04-07T05:30:24.457Z,20.10
2019-04-07T05:32:53.481Z,20.03
2019-04-07T05:35:22.545Z,21.87
2019-04-07T05:38:02.303Z,21.40
2019-04-07T05:40:21.333Z,20.27
2019-04-07T05:42:49.809Z,20.67
2019-04-07T05:45:18.306Z,22.00
2019-04-07T05:47:48.668Z,22.17
2019-04-07T05:50:16.950Z,22.30
2019-04-07T05:52:45.418Z,19.77
2019-04-07T05:55:14.307Z,20.60
2019-04-07T05:57:43.168Z,20.23
2019-04-07T06:00:15.610Z,21.97
2019-04-07T06:02:44.075Z,20.80
2019-04-07T06:05:12.683Z,21.57
2019-04-07T06:07:41.552Z,21.03
2019-04-07T06:10:10.603Z,21.07
2019-04-07T06:12:41.491Z,22.07
2019-04-07T06:15:09.730Z,21.50
2019-04-07T06:17:38.919Z,20.60
2019-04-07T06:20:12.015Z,20.80
2019-04-07T06:22:38.812Z,19.83
2019-04-07T06:25:09.605Z,20.80
2019-04-07T06:27:38.370Z,20.30
2019-04-07T06:30:09.782Z,19.73
2019-04-07T06:32:39.502Z,20.30
2019-04-07T06:35:08.565Z,19.03
2019-04-07T06:37:37.406Z,19.60
2019-04-07T06:40:06.241Z,19.80
2019-04-07T06:42:35.371Z,19.27
2019-04-07T06:45:07.026Z,21.40
2019-04-07T06:47:44.354Z,19.37
2019-04-07T06:50:15.770Z,21.20
2019-04-07T06:52:55.598Z,20.67
2019-04-07T06:55:29.546Z,22.53
2019-04-07T06:58:08.079Z,20.77
2019-04-07T07:00:37.619Z,21.77
2019-04-07T07:03:19.657Z,19.43
2019-04-07T07:06:05.888Z,20.97
2019-04-07T07:08:43.556Z,19.57
2019-04-07T07:11:11.439Z,21.67
2019-04-07T07:13:43.939Z,19.53
2019-04-07T07:16:19.598Z,18.90
2019-04-07T07:18:56.045Z,19.23
2019-04-07T07:21:38.713Z,19.60
2019-04-07T07:24:06.078Z,19.57
2019-04-07T07:26:35.511Z,19.67
2019-04-07T07:29:06.441Z,20.57
2019-04-07T07:31:34.771Z,19.40
2019-04-07T07:34:05.064Z,19.10
2019-04-07T07:36:33.836Z,20.10
2019-04-07T07:39:07.575Z,20.30
2019-04-07T07:41:32.795Z,19.00
2019-04-07T07:44:03.600Z,17.63
2019-04-07T07:46:32.259Z,19.70
2019-04-07T07:49:01.981Z,18.70
2019-04-07T07:51:31.358Z,18.00
2019-04-07T07:54:01.147Z,18.07
2019-04-07T07:56:30.260Z,18.70
2019-04-07T07:59:00.806Z,17.97
2019-04-07T08:01:28.945Z,19.40
2019-04-07T08:03:57.409Z,19.83
2019-04-07T08:06:26.268Z,20.47
2019-04-07T08:09:06.363Z,17.97
2019-04-07T08:11:25.279Z,17.80
2019-04-07T08:13:55.269Z,17.73
2019-04-07T08:16:24.020Z,20.23
2019-04-07T08:18:52.509Z,20.03
2019-04-07T08:21:20.964Z,18.37
2019-04-07T08:23:49.545Z,19.17
2019-04-07T08:26:18.300Z,18.60
2019-04-07T08:28:46.815Z,18.30
2019-04-07T08:31:17.752Z,19.63
2019-04-07T08:33:45.484Z,19.90
2019-04-07T08:36:14.837Z,17.90
2019-04-07T08:38:43.510Z,18.90
2019-04-07T08:41:14.283Z,18.47
2019-04-07T08:43:42.347Z,18.40
2019-04-07T08:46:11.078Z,19.37
2019-04-07T08:48:40.155Z,19.10
2019-04-07T08:51:08.754Z,18.43
2019-04-07T08:53:37.804Z,18.33
2019-04-07T08:56:08.218Z,17.90
2019-04-07T08:58:38.776Z,19.90
2019-04-07T09:01:07.370Z,19.13
2019-04-07T09:03:35.946Z,19.20
2019-04-07T09:06:04.749Z,19.60
2019-04-07T09:08:36.771Z,20.13
2019-04-07T09:11:14.639Z,19.60
2019-04-07T09:13:44.792Z,19.70
2019-04-07T09:16:18.502Z,20.33
2019-04-07T09:19:08.333Z,21.07
2019-04-07T09:21:41.239Z,21.87
2019-04-07T09:24:29.809Z,20.73
2019-04-07T09:27:03.390Z,20.60
2019-04-07T09:29:42.238Z,20.87
2019-04-07T09:32:28.949Z,24.37
2019-04-07T09:35:17.644Z,23.10
2019-04-07T09:38:00.363Z,21.90
2019-04-07T09:40:46.244Z,21.87
2019-04-07T09:43:23.036Z,21.50
2019-04-07T09:45:53.957Z,22.07
2019-04-07T09:48:27.666Z,21.90
2019-04-07T09:51:07.334Z,21.30
2019-04-07T09:53:38.938Z,21.37
2019-04-07T09:56:21.523Z,19.47
2019-04-07T09:58:54.658Z,20.93
2019-04-07T10:01:44.547Z,20.00
2019-04-07T10:04:17.673Z,19.50
2019-04-07T10:06:49.555Z,19.80
2019-04-07T10:09:34.627Z,20.00
2019-04-07T10:12:04.846Z,18.47
2019-04-07T10:14:44.008Z,17.00
2019-04-07T10:17:20.095Z,17.77
2019-04-07T10:20:08.632Z,17.10
2019-04-07T10:22:41.476Z,17.27
2019-04-07T10:25:12.059Z,19.30
2019-04-07T10:27:48.763Z,19.30
2019-04-07T10:30:24.219Z,16.23
2019-04-07T10:33:10.945Z,15.63
2019-04-07T10:35:57.947Z,16.30
2019-04-07T10:38:39.726Z,17.13
2019-04-07T10:41:10.663Z,16.77
2019-04-07T10:43:56.873Z,16.50
2019-04-07T10:46:27.190Z,17.27
2019-04-07T10:48:59.142Z,14.83
2019-04-07T10:51:29.606Z,17.20
2019-04-07T10:54:15.880Z,17.60
2019-04-07T10:56:46.178Z,17.17
2019-04-07T10:59:16.355Z,16.90
2019-04-07T11:01:55.343Z,16.30
2019-04-07T11:04:25.634Z,14.57
2019-04-07T11:07:05.190Z,14.57
2019-04-07T11:09:35.459Z,14.70
2019-04-07T11:12:08.834Z,15.13
2019-04-07T11:14:42.035Z,13.90
2019-04-07T11:17:17.888Z,13.90
2019-04-07T11:19:51.341Z,14.77
2019-04-07T11:22:30.862Z,13.60
2019-04-07T11:25:01.152Z,13.77
2019-04-07T11:27:46.795Z,14.27
2019-04-07T11:30:21.301Z,15.20
2019-04-07T11:33:07.083Z,13.13
2019-04-07T11:35:40.200Z,14.60
2019-04-07T11:38:25.651Z,14.73
2019-04-07T11:41:12.413Z,13.27
2019-04-07T11:43:45.455Z,13.60
2019-04-07T11:46:18.833Z,14.53
2019-04-07T11:49:04.932Z,14.20
2019-04-07T11:51:44.263Z,15.23
2019-04-07T11:54:20.106Z,14.50
2019-04-07T11:56:50.498Z,13.20
2019-04-07T11:59:27.432Z,13.93
2019-04-07T12:02:12.579Z,13.70
2019-04-07T12:04:59.763Z,14.53
2019-04-07T12:07:53.882Z,14.43
2019-04-07T12:13:36.369Z,15.40
2019-04-07T12:16:15.738Z,13.93
2019-04-07T12:18:53.266Z,14.80
2019-04-07T12:21:29.883Z,15.40
2019-04-07T12:24:06.039Z,13.83
2019-04-07T12:26:39.477Z,14.90
2019-04-07T12:29:11.278Z,15.23
2019-04-07T12:31:42.301Z,13.47
2019-04-07T12:34:19.003Z,14.60
2019-04-07T12:37:06.865Z,14.57
2019-04-07T12:39:40.659Z,14.23
2019-04-07T12:42:27.762Z,15.60
2019-04-07T12:44:58.266Z,13.97
2019-04-07T12:47:32.015Z,13.57
2019-04-07T12:50:09.284Z,13.60
2019-04-07T12:52:54.360Z,13.60
2019-04-07T12:55:25.145Z,13.40
2019-04-07T12:58:12.976Z,14.77
2019-04-07T13:00:56.993Z,15.00
2019-04-07T13:03:28.881Z,14.40
2019-04-07T13:06:06.408Z,13.20
2019-04-07T13:08:40.431Z,14.37
2019-04-07T13:11:34.564Z,14.77
2019-04-07T13:14:14.029Z,14.73
2019-04-07T13:17:04.146Z,13.67
2019-04-07T13:19:35.224Z,14.93
2019-04-07T13:22:15.074Z,13.80
2019-04-07T13:24:56.999Z,14.73
2019-04-07T13:27:29.652Z,13.53
2019-04-07T13:30:00.758Z,14.43
2019-04-07T13:32:41.657Z,13.50
2019-04-07T13:35:11.488Z,13.33
2019-04-07T13:37:42.393Z,13.77
2019-04-07T13:40:29.555Z,13.43
2019-04-07T13:43:08.732Z,13.77
2019-04-07T13:45:44.631Z,13.07
2019-04-07T13:48:20.818Z,11.40
2019-04-07T13:51:07.554Z,12.17
2019-04-07T13:53:57.608Z,11.93
2019-04-07T13:56:37.202Z,12.43
2019-04-07T13:59:28.401Z,11.70
2019-04-07T14:02:01.503Z,12.57
2019-04-07T14:04:40.344Z,11.80
2019-04-07T14:07:22.322Z,12.30
2019-04-07T14:10:05.613Z,11.73
2019-04-07T14:12:42.253Z,10.40
2019-04-07T14:15:19.382Z,10.93
2019-04-07T14:17:52.562Z,11.93
2019-04-07T14:20:40.332Z,12.00
2019-04-07T14:23:10.979Z,11.43
2019-04-07T14:25:46.246Z,11.93
2019-04-07T14:28:19.065Z,10.70
2019-04-07T14:30:58.829Z,10.40
2019-04-07T14:33:45.417Z,10.33
2019-04-07T14:36:18.267Z,9.60
2019-04-07T14:38:48.440Z,11.60
2019-04-07T14:41:24.746Z,11.03
2019-04-07T14:44:10.896Z,9.57
2019-04-07T14:46:43.784Z,10.80
2019-04-07T14:49:30.459Z,10.23
2019-04-07T14:52:01.396Z,11.70
2019-04-07T14:54:31.563Z,11.60
2019-04-07T14:57:07.328Z,11.20
2019-04-07T14:59:48.574Z,10.17
2019-04-07T15:02:17.344Z,10.33
2019-04-07T15:04:49.927Z,9.47
2019-04-07T15:07:34.798Z,9.83
2019-04-07T15:10:15.391Z,9.27
2019-04-07T15:12:56.826Z,9.30
2019-04-07T15:15:25.379Z,9.43
2019-04-07T15:17:54.392Z,9.93
2019-04-07T15:20:23.848Z,10.40
2019-04-07T15:22:52.836Z,9.73
2019-04-07T15:25:21.607Z,11.37
2019-04-07T15:27:50.086Z,13.60
2019-04-07T15:30:20.250Z,10.53
2019-04-07T15:32:48.768Z,9.13
2019-04-07T15:35:17.309Z,11.30
2019-04-07T15:37:46.532Z,10.17
2019-04-07T15:40:15.208Z,9.10
2019-04-07T15:42:48.834Z,9.40
2019-04-07T15:45:14.978Z,10.30
2019-04-07T15:47:44.484Z,10.00
2019-04-07T15:50:13.857Z,9.50
2019-04-07T15:52:45.906Z,8.57
2019-04-07T15:55:14.665Z,10.33
2019-04-07T15:57:44.011Z,10.20
2019-04-07T16:00:12.990Z,11.33
2019-04-07T16:02:43.141Z,11.73
2019-04-07T16:05:13.713Z,11.30
2019-04-07T16:07:42.315Z,9.90
2019-04-07T16:10:11.016Z,9.10
2019-04-07T16:12:47.342Z,11.60
2019-04-07T16:15:10.868Z,10.57
2019-04-07T16:17:40.206Z,9.80
2019-04-07T16:20:19.919Z,10.37
2019-04-07T16:22:44.188Z,10.17
2019-04-07T16:25:11.498Z,10.00
2019-04-07T16:27:39.965Z,10.80
2019-04-07T16:30:13.854Z,9.77
2019-04-07T16:32:42.079Z,10.23
2019-04-07T16:35:14.948Z,10.30
2019-04-07T16:37:41.981Z,9.93
2019-04-07T16:40:11.709Z,10.10
2019-04-07T16:42:40.482Z,10.13
2019-04-07T16:45:13.591Z,9.87
2019-04-07T16:47:39.585Z,10.97
2019-04-07T16:50:09.539Z,11.00
2019-04-07T16:52:38.019Z,10.03
2019-04-07T16:55:09.428Z,10.37
2019-04-07T16:57:38.730Z,10.27
2019-04-07T17:00:14.345Z,10.67
2019-04-07T17:02:44.967Z,10.67
2019-04-07T17:05:14.207Z,9.97
2019-04-07T17:07:45.510Z,10.87
2019-04-07T17:10:13.818Z,11.30
2019-04-07T17:12:42.777Z,9.80
2019-04-07T17:15:12.205Z,11.93
2019-04-07T17:17:40.822Z,10.73
2019-04-07T17:20:09.999Z,10.10
2019-04-07T17:22:38.501Z,10.50
2019-04-07T17:25:09.602Z,12.47
2019-04-07T17:27:40.924Z,11.63
2019-04-07T17:30:16.817Z,11.33
2019-04-07T17:32:45.785Z,10.27
2019-04-07T17:35:17.253Z,10.67
2019-04-07T17:37:46.184Z,10.13
2019-04-07T17:40:17.274Z,10.00
2019-04-07T17:42:48.186Z,9.80
2019-04-07T17:45:35.951Z,11.57
2019-04-07T17:48:22.157Z,10.17
2019-04-07T17:51:11.193Z,11.47
2019-04-07T17:53:57.110Z,10.70
2019-04-07T17:56:29.893Z,11.33
2019-04-07T17:59:08.669Z,11.17
2019-04-07T18:01:43.070Z,10.50
2019-04-07T18:04:19.147Z,10.90
2019-04-07T18:06:56.069Z,11.80
2019-04-07T18:09:38.484Z,12.83
2019-04-07T18:12:27.016Z,13.00
2019-04-07T18:15:10.379Z,13.37
2019-04-07T18:17:50.023Z,12.70
2019-04-07T18:20:39.548Z,12.40
2019-04-07T18:23:11.235Z,13.50
2019-04-07T18:25:53.275Z,12.00
2019-04-07T18:28:39.203Z,13.83
2019-04-07T18:31:26.288Z,11.50
2019-04-07T18:33:57.245Z,11.63
2019-04-07T18:36:36.054Z,11.70
2019-04-07T18:39:24.127Z,12.37
2019-04-07T18:42:06.534Z,11.37
2019-04-07T18:44:46.909Z,10.50
2019-04-07T18:47:23.930Z,10.93
2019-04-07T18:50:12.121Z,10.90
2019-04-07T18:52:58.158Z,10.40
2019-04-07T18:55:45.230Z,10.40
2019-04-07T18:58:31.611Z,10.47
2019-04-07T19:01:20.209Z,9.67
2019-04-07T19:03:53.334Z,10.27
2019-04-07T19:06:26.105Z,10.03
2019-04-07T19:09:01.330Z,9.80
2019-04-07T19:11:37.341Z,11.20
2019-04-07T19:14:39.446Z,10.73
2019-04-07T19:17:12.774Z,10.40
2019-04-07T19:19:59.486Z,10.13
2019-04-07T19:22:39.813Z,10.27
2019-04-07T19:25:14.438Z,10.90
2019-04-07T19:27:55.207Z,9.67
2019-04-07T19:30:29.133Z,11.07
2019-04-07T19:33:00.407Z,10.20
2019-04-07T19:35:46.900Z,10.77
2019-04-07T19:38:31.796Z,10.50
2019-04-07T19:41:18.711Z,9.70
2019-04-07T19:44:00.692Z,11.23
2019-04-07T19:46:31.560Z,9.73
2019-04-07T19:49:07.854Z,10.40
2019-04-07T19:51:46.994Z,9.57
2019-04-07T19:54:20.360Z,10.87
2019-04-07T19:56:56.944Z,10.40
2019-04-07T19:59:30.188Z,10.37
2019-04-07T20:02:10.333Z,10.60
2019-04-07T20:04:48.189Z,9.90
2019-04-07T20:07:35.230Z,9.67
2019-04-07T20:10:16.563Z,10.37
2019-04-07T20:12:48.038Z,9.80
2019-04-07T20:15:29.614Z,10.23
2019-04-07T20:18:17.065Z,10.77
2019-04-07T20:20:53.726Z,9.37
2019-04-07T20:23:39.653Z,9.70
2019-04-07T20:26:15.670Z,10.20
2019-04-07T20:28:46.466Z,11.10
2019-04-07T20:31:21.918Z,9.90
2019-04-07T20:33:51.225Z,11.10
2019-04-07T20:36:23.857Z,10.67
2019-04-07T20:39:09.364Z,9.63
2019-04-07T20:41:45.442Z,10.20
2019-04-07T20:44:15.827Z,10.40
2019-04-07T20:46:46.085Z,9.80
2019-04-07T20:49:22.242Z,10.63
2019-04-07T20:51:55.257Z,11.03
2019-04-07T20:54:25.910Z,10.33
2019-04-07T20:57:02.941Z,10.50
2019-04-07T20:59:52.592Z,10.77
2019-04-07T21:02:32.374Z,10.50
2019-04-07T21:05:04.724Z,10.67
2019-04-07T21:07:35.474Z,10.93
2019-04-07T21:10:09.809Z,11.50
2019-04-07T21:12:40.085Z,11.50
2019-04-07T21:15:20.880Z,12.10
2019-04-07T21:17:54.413Z,10.80
2019-04-07T21:20:27.751Z,11.17
2019-04-07T21:23:03.772Z,11.73
2019-04-07T21:25:34.980Z,11.30
2019-04-07T21:28:13.978Z,12.10
2019-04-07T21:30:45.384Z,11.13
2019-04-07T21:33:22.481Z,11.30
2019-04-07T21:35:52.508Z,10.07
2019-04-07T21:38:29.999Z,11.20
2019-04-07T21:41:06.302Z,11.60
2019-04-07T21:43:56.953Z,12.13
2019-04-07T21:46:28.999Z,12.90
2019-04-07T21:49:00.692Z,11.30
2019-04-07T21:51:37.779Z,12.50
2019-04-07T21:54:19.980Z,11.87
2019-04-07T21:57:04.631Z,11.10
2019-04-07T21:59:50.603Z,12.40
2019-04-07T22:02:29.799Z,11.30
2019-04-07T22:05:09.343Z,10.50
2019-04-07T22:07:39.733Z,12.03
2019-04-07T22:10:10.121Z,11.17
2019-04-07T22:12:38.672Z,11.77
2019-04-07T22:15:11.629Z,12.77
2019-04-07T22:17:39.411Z,12.60
2019-04-07T22:20:10.478Z,12.53
2019-04-07T22:22:39.163Z,12.57
2019-04-07T22:25:09.593Z,12.77
2019-04-07T22:27:38.955Z,10.73
2019-04-07T22:30:11.270Z,13.57
2019-04-07T22:32:40.664Z,12.17
2019-04-07T22:35:10.525Z,12.63
2019-04-07T22:37:39.884Z,14.00
2019-04-07T22:40:17.586Z,12.00
2019-04-07T22:42:48.505Z,12.40
2019-04-07T22:45:16.501Z,11.97
2019-04-07T22:47:44.949Z,12.50
2019-04-07T22:50:13.557Z,12.67
2019-04-07T22:52:42.028Z,13.47
2019-04-07T22:55:10.718Z,11.87
2019-04-07T22:57:39.269Z,11.67
2019-04-07T23:00:11.079Z,12.57
2019-04-07T23:02:40.225Z,11.93
2019-04-07T23:05:09.289Z,12.53
2019-04-07T23:07:37.812Z,11.97
2019-04-07T23:10:06.487Z,12.17
2019-04-07T23:12:36.028Z,11.43
2019-04-07T23:15:06.764Z,11.57
2019-04-07T23:17:35.229Z,11.70
2019-04-07T23:20:09.403Z,12.13
2019-04-07T23:22:38.266Z,12.27
2019-04-07T23:25:07.806Z,12.70
2019-04-07T23:27:36.505Z,11.60
2019-04-07T23:30:07.560Z,12.60
2019-04-07T23:32:36.023Z,12.80
2019-04-07T23:35:06.268Z,13.87
2019-04-07T23:37:34.960Z,12.83
2019-04-07T23:40:06.550Z,12.53
2019-04-07T23:42:36.043Z,12.70
2019-04-07T23:45:06.745Z,12.77
2019-04-07T23:47:35.431Z,13.20
2019-04-07T23:50:09.070Z,11.87
2019-04-07T23:52:37.707Z,13.63
2019-04-07T23:55:06.511Z,12.07
2019-04-07T23:57:35.973Z,12.53
